Terminal Aerodrome Forecast
Issued by NWS

Home | Current Version | Previous Version | Text Only | Print | Product List | Glossary On
Versions: 1 2 3 4 5 6 7 8 9 10 11 12 13 14 15 16 17 18 19 20 21 22 23 24 25 26 27 28 29 30 31 32 33 34 35 36 37 38 39 40 41 42 43 44 45 46 47 48 49 50
710
FTUS46 KEKA 240552
TAFACV
TAF
KACV 240552Z 2406/2506 15015G22KT P6SM VCSH OVC060 WS015/19040KT
     FM241300 16015G24KT 4SM RA SCT025 OVC040 WS015/21045KT
     FM241900 19016G26KT 4SM -SHRA BR BKN020 OVC035
     FM242200 25015KT 4SM -SHRA BR BKN025
     FM250300 16010G18KT P6SM VCSH SCT025 BKN040=

USA.gov is the U.S. government's official web portal to all federal, state and local government web resources and services.